createdAt,value
2022-10-13T00:00:18.909Z,101731.25
2022-10-13T00:02:46.930Z,101727.44
2022-10-13T00:05:14.677Z,101727.44
2022-10-13T00:07:42.587Z,101723.63
2022-10-13T00:10:10.965Z,101718.19
2022-10-13T00:12:40.833Z,101727.16
2022-10-13T00:15:09.956Z,101725.22
2022-10-13T00:17:37.876Z,101720.91
2022-10-13T00:20:07.220Z,101721.41
2022-10-13T00:22:35.050Z,101710.56
2022-10-13T00:25:03.584Z,101719.22
2022-10-13T00:27:31.446Z,101713.78
2022-10-13T00:30:00.594Z,101707.28
2022-10-13T00:32:28.382Z,101709.97
2022-10-13T00:34:57.709Z,101712.41
2022-10-13T00:37:25.788Z,101711.00
2022-10-13T00:39:53.637Z,101700.13
2022-10-13T00:42:23.409Z,101695.50
2022-10-13T00:45:08.732Z,101701.25
2022-10-13T00:47:40.960Z,101702.78
2022-10-13T00:50:12.487Z,101702.19
2022-10-13T00:52:42.457Z,101693.16
2022-10-13T00:55:12.917Z,101696.09
2022-10-13T00:57:43.885Z,101697.13
2022-10-13T01:00:14.500Z,101695.72
2022-10-13T01:02:42.379Z,101687.78
2022-10-13T01:05:10.539Z,101692.63
2022-10-13T01:07:38.494Z,101688.22
2022-10-13T01:10:07.199Z,101687.63
2022-10-13T01:12:45.717Z,101687.03
2022-10-13T01:15:23.645Z,101676.38
2022-10-13T01:18:02.563Z,101674.19
2022-10-13T01:20:53.978Z,101669.56
2022-10-13T01:23:49.480Z,101670.56
2022-10-13T01:26:28.251Z,101672.69
2022-10-13T01:29:25.947Z,101666.16
2022-10-13T01:32:03.177Z,101672.59
2022-10-13T01:34:35.571Z,101668.19
2022-10-13T01:37:10.764Z,101669.00
2022-10-13T01:39:44.514Z,101668.19
2022-10-13T01:42:18.679Z,101664.97
2022-10-13T01:44:51.122Z,101663.06
2022-10-13T01:47:21.445Z,101662.75
2022-10-13T01:49:51.546Z,101661.13
2022-10-13T01:52:22.793Z,101654.09
2022-10-13T01:54:52.001Z,101658.72
2022-10-13T01:57:32.992Z,101661.72
2022-10-13T02:00:03.977Z,101649.72
2022-10-13T02:02:38.342Z,101647.00
2022-10-13T02:05:14.241Z,101647.31
2022-10-13T02:07:48.407Z,101644.03
2022-10-13T02:10:21.845Z,101635.56
2022-10-13T02:12:54.473Z,101641.81
2022-10-13T02:15:26.403Z,101646.63
2022-10-13T02:17:56.429Z,101641.41
2022-10-13T02:20:24.337Z,101638.38
2022-10-13T02:22:58.920Z,101633.16
2022-10-13T02:25:27.226Z,101630.19
2022-10-13T02:27:55.040Z,101639.63
2022-10-13T02:30:24.832Z,101637.41
2022-10-13T02:32:52.978Z,101635.22
2022-10-13T02:35:22.358Z,101635.22
2022-10-13T02:37:50.090Z,101634.59
2022-10-13T02:40:18.405Z,101636.22
2022-10-13T02:42:46.181Z,101635.63
2022-10-13T02:45:13.936Z,101638.84
2022-10-13T02:47:41.852Z,101636.63
2022-10-13T02:50:10.556Z,101636.03
2022-10-13T02:52:39.873Z,101630.59
2022-10-13T02:55:08.915Z,101630.59
2022-10-13T02:57:36.769Z,101622.13
2022-10-13T03:00:07.152Z,101620.72
2022-10-13T03:02:35.035Z,101615.28
2022-10-13T03:05:02.814Z,101617.72
2022-10-13T03:07:30.677Z,101621.22
2022-10-13T03:09:59.801Z,101619.50
2022-10-13T03:12:27.548Z,101616.78
2022-10-13T03:14:55.297Z,101617.28
2022-10-13T03:17:23.149Z,101611.84
2022-10-13T03:19:50.973Z,101608.31
2022-10-13T03:22:19.128Z,101608.22
2022-10-13T03:24:47.135Z,101607.63
2022-10-13T03:27:16.475Z,101603.47
2022-10-13T03:29:44.397Z,101603.97
2022-10-13T03:32:12.125Z,101602.59
2022-10-13T03:34:39.918Z,101601.97
2022-10-13T03:37:07.690Z,101600.53
2022-10-13T03:39:35.484Z,101594.50
2022-10-13T03:42:03.258Z,101583.00
2022-10-13T03:44:32.705Z,101583.00
2022-10-13T03:47:00.536Z,101594.38
2022-10-13T03:49:28.447Z,101590.25
2022-10-13T03:51:56.232Z,101581.78
2022-10-13T03:54:24.741Z,101581.47
2022-10-13T03:56:52.528Z,101584.38
2022-10-13T03:59:20.236Z,101576.72
2022-10-13T04:01:49.435Z,101577.22
2022-10-13T04:04:17.312Z,101575.00
2022-10-13T04:06:45.082Z,101575.50
2022-10-13T04:09:13.058Z,101570.03
2022-10-13T04:11:40.793Z,101574.88
2022-10-13T04:14:08.598Z,101575.66
2022-10-13T04:16:36.389Z,101574.88
2022-10-13T04:19:06.595Z,101574.88
2022-10-13T04:21:35.886Z,101568.63
2022-10-13T04:24:05.138Z,101564.59
2022-10-13T04:26:36.598Z,101569.56
2022-10-13T04:29:05.791Z,101569.25
2022-10-13T04:31:33.968Z,101555.31
2022-10-13T04:34:01.731Z,101562.38
2022-10-13T04:36:31.351Z,101560.13
2022-10-13T04:38:59.130Z,101561.25
2022-10-13T04:41:26.913Z,101564.78
2022-10-13T04:43:55.483Z,101558.25
2022-10-13T04:46:25.851Z,101545.44
2022-10-13T04:48:54.754Z,101555.22
2022-10-13T04:51:24.458Z,101548.16
2022-10-13T04:53:57.061Z,101550.88
2022-10-13T04:56:25.491Z,101545.44
2022-10-13T04:58:53.295Z,101551.47
2022-10-13T05:01:23.496Z,101550.34
2022-10-13T05:03:52.790Z,101540.28
2022-10-13T05:06:22.927Z,101547.03
2022-10-13T05:08:51.092Z,101549.25
2022-10-13T05:11:20.738Z,101552.81
2022-10-13T05:13:48.930Z,101543.81
2022-10-13T05:16:19.119Z,101539.19
2022-10-13T05:18:46.974Z,101529.69
2022-10-13T05:21:16.250Z,101535.16
2022-10-13T05:23:45.285Z,101538.97
2022-10-13T05:26:15.310Z,101539.78
2022-10-13T05:28:45.186Z,101529.22
2022-10-13T05:31:14.585Z,101530.31
2022-10-13T05:33:43.099Z,101526.50
2022-10-13T05:36:13.441Z,101530.31
2022-10-13T05:38:41.256Z,101519.44
2022-10-13T05:41:11.713Z,101530.31
2022-10-13T05:43:40.524Z,101535.78
2022-10-13T05:46:10.480Z,101526.50
2022-10-13T05:48:38.862Z,101524.06
2022-10-13T05:51:12.023Z,101520.25
2022-10-13T05:53:48.174Z,101521.84
2022-10-13T05:56:22.698Z,101514.16
2022-10-13T05:58:54.821Z,101517.41
2022-10-13T06:01:28.817Z,101498.63
2022-10-13T06:04:00.793Z,101500.22
2022-10-13T06:06:31.419Z,101505.69
2022-10-13T06:08:59.714Z,101493.19
2022-10-13T06:11:27.595Z,101485.53
2022-10-13T06:13:55.387Z,101469.19
2022-10-13T06:16:24.526Z,101481.06
2022-10-13T06:18:52.314Z,101482.38
2022-10-13T06:21:20.108Z,101487.50
2022-10-13T06:23:47.871Z,101484.16
2022-10-13T06:26:15.662Z,101500.97
2022-10-13T06:28:47.658Z,101494.94
2022-10-13T06:31:17.862Z,101492.22
2022-10-13T06:33:46.970Z,101492.22
2022-10-13T06:36:15.089Z,101497.34
2022-10-13T06:38:42.847Z,101497.03
2022-10-13T06:41:11.311Z,101492.88
2022-10-13T06:43:40.575Z,101490.44
2022-10-13T06:46:09.310Z,101502.97
2022-10-13T06:48:37.137Z,101511.44
2022-10-13T06:51:08.810Z,101509.84
2022-10-13T06:53:36.741Z,101508.22
2022-10-13T06:56:06.918Z,101512.88
2022-10-13T06:58:36.047Z,101512.88
2022-10-13T07:01:04.238Z,101514.78
2022-10-13T07:03:32.409Z,101515.59
2022-10-13T07:06:02.725Z,101507.44
2022-10-13T07:08:32.500Z,101501.97
2022-10-13T07:11:00.288Z,101514.47
2022-10-13T07:13:29.627Z,101508.22
2022-10-13T07:15:59.105Z,101507.91
2022-10-13T07:18:27.195Z,101520.94
2022-10-13T07:20:54.978Z,101508.59
2022-10-13T07:23:22.763Z,101507.16
2022-10-13T07:25:51.971Z,101503.84
2022-10-13T07:28:20.319Z,101507.34
2022-10-13T07:30:48.181Z,101504.31
2022-10-13T07:33:15.933Z,101503.72
2022-10-13T07:35:43.695Z,101506.13
2022-10-13T07:38:14.679Z,101507.41
2022-10-13T07:40:42.494Z,101501.84
2022-10-13T07:43:11.627Z,101493.53
2022-10-13T07:45:39.439Z,101497.75
2022-10-13T07:48:07.389Z,101497.63
2022-10-13T07:50:35.206Z,101499.72
2022-10-13T07:53:02.940Z,101493.97
2022-10-13T07:55:30.752Z,101500.09
2022-10-13T07:57:58.744Z,101498.78
2022-10-13T08:00:28.350Z,101497.53
2022-10-13T08:02:56.187Z,101499.00
2022-10-13T08:05:23.987Z,101497.28
2022-10-13T08:07:54.695Z,101502.88
2022-10-13T08:10:25.352Z,101502.44
2022-10-13T08:12:53.305Z,101499.56
2022-10-13T08:15:21.055Z,101498.31
2022-10-13T08:17:50.148Z,101504.09
2022-10-13T08:20:18.191Z,101505.06
2022-10-13T08:22:47.617Z,101506.84
2022-10-13T08:25:15.491Z,101499.31
2022-10-13T08:27:51.007Z,101513.44
2022-10-13T08:30:20.237Z,101506.72
2022-10-13T08:32:48.107Z,101497.53
2022-10-13T08:35:17.322Z,101491.31
2022-10-13T08:37:45.024Z,101499.84
2022-10-13T08:40:16.823Z,101499.34
2022-10-13T08:42:45.933Z,101503.50
2022-10-13T08:45:41.221Z,101500.31
2022-10-13T08:48:14.928Z,101509.19
2022-10-13T08:50:46.945Z,101500.03
2022-10-13T08:53:22.418Z,101504.19
2022-10-13T08:55:56.330Z,101495.81
2022-10-13T08:58:27.711Z,101489.06
2022-10-13T09:01:02.226Z,101496.31
2022-10-13T09:03:31.511Z,101480.22
2022-10-13T09:06:14.752Z,101481.16
2022-10-13T09:08:45.492Z,101481.66
2022-10-13T09:11:17.176Z,101478.88
2022-10-13T09:13:44.981Z,101475.19
2022-10-13T09:16:12.869Z,101468.25
2022-10-13T09:18:41.027Z,101464.56
2022-10-13T09:21:20.451Z,101464.69
2022-10-13T09:23:50.959Z,101464.31
2022-10-13T09:26:22.523Z,101465.09
2022-10-13T09:28:51.125Z,101456.84
2022-10-13T09:31:24.453Z,101463.06
2022-10-13T09:34:00.029Z,101461.13
2022-10-13T09:36:31.361Z,101458.00
2022-10-13T09:39:08.761Z,101464.38
2022-10-13T09:41:37.238Z,101460.91
2022-10-13T09:44:12.207Z,101466.97
2022-10-13T09:46:47.806Z,101463.38
2022-10-13T09:49:38.475Z,101467.94
2022-10-13T09:52:16.004Z,101455.31
2022-10-13T09:54:47.433Z,101456.91
2022-10-13T09:57:22.127Z,101451.53
2022-10-13T09:59:51.712Z,101457.03
2022-10-13T10:02:31.906Z,101453.97
2022-10-13T10:05:06.543Z,101452.59
2022-10-13T10:07:35.786Z,101445.78
2022-10-13T10:10:06.552Z,101445.13
2022-10-13T10:12:38.300Z,101445.41
2022-10-13T10:15:18.322Z,101438.09
2022-10-13T10:17:53.319Z,101445.41
2022-10-13T10:20:37.429Z,101435.19
2022-10-13T10:23:12.657Z,101427.91
2022-10-13T10:25:45.816Z,101428.66
2022-10-13T10:28:40.384Z,101435.47
2022-10-13T10:31:20.218Z,101428.88
2022-10-13T10:33:57.469Z,101424.13
2022-10-13T10:36:33.847Z,101424.34
2022-10-13T10:39:09.338Z,101422.31
2022-10-13T10:41:46.064Z,101418.41
2022-10-13T10:44:16.895Z,101416.91
2022-10-13T10:46:48.321Z,101411.66
2022-10-13T10:49:20.973Z,101427.53
2022-10-13T10:51:49.310Z,101421.34
2022-10-13T10:54:32.107Z,101420.91
2022-10-13T10:57:07.844Z,101414.22
2022-10-13T10:59:50.801Z,101408.84
2022-10-13T11:02:35.922Z,101404.28
2022-10-13T11:05:06.364Z,101398.63
2022-10-13T11:07:57.490Z,101392.00
2022-10-13T11:10:29.834Z,101398.84
2022-10-13T11:13:22.216Z,101390.59
2022-10-13T11:15:50.232Z,101379.53
2022-10-13T11:18:55.008Z,101390.19
2022-10-13T11:21:23.072Z,101387.28
2022-10-13T11:23:55.546Z,101385.69
2022-10-13T11:26:41.620Z,101386.38
2022-10-13T11:29:19.956Z,101391.97
2022-10-13T11:31:55.642Z,101391.59
2022-10-13T11:34:32.692Z,101387.00
2022-10-13T11:37:03.072Z,101387.09
2022-10-13T11:40:04.703Z,101389.28
2022-10-13T11:43:10.770Z,101383.91
2022-10-13T11:46:17.300Z,101385.22
2022-10-13T11:49:16.937Z,101378.63
2022-10-13T11:52:14.850Z,101383.28
2022-10-13T11:54:50.857Z,101379.75
2022-10-13T11:57:26.532Z,101372.22
2022-10-13T11:59:57.580Z,101382.47
2022-10-13T12:02:27.520Z,101379.31
2022-10-13T12:05:07.546Z,101383.72
2022-10-13T12:07:38.871Z,101379.69
2022-10-13T12:10:09.801Z,101382.16
2022-10-13T12:12:37.945Z,101378.50
2022-10-13T12:15:29.346Z,101386.09
2022-10-13T12:17:57.351Z,101375.34
2022-10-13T12:20:27.088Z,101382.00
2022-10-13T12:22:56.552Z,101377.66
2022-10-13T12:25:28.937Z,101382.69
2022-10-13T12:27:59.760Z,101383.38
2022-10-13T12:30:31.108Z,101380.19
2022-10-13T12:33:00.842Z,101372.31
2022-10-13T12:35:31.043Z,101362.13
2022-10-13T12:38:03.226Z,101361.78
2022-10-13T12:40:31.533Z,101355.84
2022-10-13T12:42:59.658Z,101364.41
2022-10-13T12:45:33.804Z,101351.16
2022-10-13T12:48:01.656Z,101350.13
2022-10-13T12:50:37.833Z,101347.03
2022-10-13T12:53:23.508Z,101343.16
2022-10-13T12:55:56.393Z,101348.84
2022-10-13T12:58:28.151Z,101340.16
2022-10-13T13:01:01.348Z,101346.44
2022-10-13T13:03:30.874Z,101340.25
2022-10-13T13:06:38.368Z,101334.91
2022-10-13T13:09:31.224Z,101340.75
2022-10-13T13:12:21.074Z,101342.00
2022-10-13T13:14:49.625Z,101339.25
2022-10-13T13:17:52.862Z,101335.34
2022-10-13T13:20:26.743Z,101332.88
2022-10-13T13:22:54.796Z,101334.22
2022-10-13T13:25:22.985Z,101335.81
2022-10-13T13:27:51.905Z,101339.00
2022-10-13T13:30:22.370Z,101328.84
2022-10-13T13:32:51.839Z,101328.50
2022-10-13T13:35:19.800Z,101326.34
2022-10-13T13:37:50.349Z,101324.72
2022-10-13T13:40:20.058Z,101323.94
2022-10-13T13:42:47.849Z,101325.09
2022-10-13T13:45:16.263Z,101326.81
2022-10-13T13:47:44.404Z,101325.09
2022-10-13T13:50:18.136Z,101324.22
2022-10-13T13:52:46.242Z,101323.06
2022-10-13T13:55:14.121Z,101325.38
2022-10-13T13:57:42.938Z,101317.72
2022-10-13T14:00:13.206Z,101329.38
2022-10-13T14:02:42.780Z,101325.38
2022-10-13T14:05:11.137Z,101320.59
2022-10-13T14:07:40.384Z,101321.28
2022-10-13T14:10:10.669Z,101318.09
2022-10-13T14:12:39.222Z,101321.03
2022-10-13T14:15:07.980Z,101319.00
2022-10-13T14:17:35.860Z,101314.44
2022-10-13T14:20:03.869Z,101321.31
2022-10-13T14:22:31.643Z,101315.03
2022-10-13T14:25:00.862Z,101311.47
2022-10-13T14:27:28.667Z,101314.09
2022-10-13T14:29:56.534Z,101314.44
2022-10-13T14:32:26.917Z,101304.63
2022-10-13T14:34:54.732Z,101309.31
2022-10-13T14:37:23.891Z,101306.09
2022-10-13T14:39:52.923Z,101303.69
2022-10-13T14:42:22.154Z,101303.69
2022-10-13T14:44:49.968Z,101302.56
2022-10-13T14:47:17.997Z,101299.16
2022-10-13T14:49:45.988Z,101302.09
2022-10-13T14:52:13.858Z,101295.03
2022-10-13T14:54:44.812Z,101297.31
2022-10-13T14:57:16.010Z,101303.13
2022-10-13T14:59:45.581Z,101291.84
2022-10-13T15:02:13.991Z,101291.03
2022-10-13T15:04:41.935Z,101291.16
2022-10-13T15:07:10.094Z,101293.66
2022-10-13T15:09:52.457Z,101289.06
2022-10-13T15:12:25.649Z,101283.94
2022-10-13T15:14:54.905Z,101279.97
2022-10-13T15:17:22.717Z,101283.38
2022-10-13T15:19:52.964Z,101275.63
2022-10-13T15:22:21.221Z,101271.38
2022-10-13T15:24:49.295Z,101267.06
2022-10-13T15:27:17.160Z,101270.13
2022-10-13T15:29:44.950Z,101266.69
2022-10-13T15:32:20.504Z,101268.75
2022-10-13T15:34:48.748Z,101267.16
2022-10-13T15:37:16.612Z,101263.97
2022-10-13T15:39:44.613Z,101251.50
2022-10-13T15:42:13.267Z,101247.97
2022-10-13T15:47:31.033Z,101248.22
2022-10-13T15:49:58.822Z,101245.00
2022-10-13T15:52:29.730Z,101254.38
2022-10-13T15:55:01.591Z,101244.09
2022-10-13T15:57:29.469Z,101251.19
2022-10-13T15:59:57.270Z,101241.94
2022-10-13T16:02:25.174Z,101240.13
2022-10-13T16:04:54.539Z,101247.84
2022-10-13T16:07:22.293Z,101249.81
2022-10-13T16:09:50.101Z,101248.22
2022-10-13T16:12:17.978Z,101240.00
2022-10-13T16:14:46.326Z,101248.53
2022-10-13T16:17:14.105Z,101239.84
2022-10-13T16:19:42.267Z,101245.66
2022-10-13T16:22:11.788Z,101254.34
2022-10-13T16:24:39.655Z,101252.75
2022-10-13T16:27:07.679Z,101245.56
2022-10-13T16:29:35.715Z,101247.72
2022-10-13T16:32:03.579Z,101245.19
2022-10-13T16:34:31.396Z,101252.97
2022-10-13T16:36:59.203Z,101254.47
2022-10-13T16:39:28.598Z,101255.91
2022-10-13T16:41:56.467Z,101263.22
2022-10-13T16:44:24.256Z,101264.38
2022-10-13T16:46:53.850Z,101259.56
2022-10-13T16:49:21.857Z,101251.59
2022-10-13T16:51:49.833Z,101259.31
2022-10-13T16:54:17.626Z,101258.88
2022-10-13T16:56:46.945Z,101255.19
2022-10-13T16:59:15.080Z,101260.56
2022-10-13T17:01:42.878Z,101258.84
2022-10-13T17:04:10.692Z,101275.97
2022-10-13T17:06:39.531Z,101265.00
2022-10-13T17:09:07.598Z,101268.88
2022-10-13T17:11:37.231Z,101275.50
2022-10-13T17:14:06.824Z,101274.34
2022-10-13T17:16:35.928Z,101271.63
2022-10-13T17:19:04.384Z,101276.75
2022-10-13T17:21:32.338Z,101265.13
2022-10-13T17:24:00.282Z,101274.00
2022-10-13T17:26:28.203Z,101263.88
2022-10-13T17:28:56.183Z,101263.16
2022-10-13T17:31:26.036Z,101265.13
2022-10-13T17:33:54.663Z,101264.31
2022-10-13T17:36:24.224Z,101265.81
2022-10-13T17:38:53.838Z,101269.09
2022-10-13T17:41:22.131Z,101274.78
2022-10-13T17:43:51.059Z,101276.38
2022-10-13T17:46:38.378Z,101271.56
2022-10-13T17:49:11.584Z,101279.44
2022-10-13T17:51:39.929Z,101281.53
2022-10-13T17:54:12.961Z,101282.31
2022-10-13T17:56:43.645Z,101275.25
2022-10-13T17:59:11.487Z,101279.09
2022-10-13T18:01:42.655Z,101269.28
2022-10-13T18:04:14.867Z,101282.31
2022-10-13T18:06:44.725Z,101281.19
2022-10-13T18:09:13.902Z,101284.56
2022-10-13T18:11:48.502Z,101277.06
2022-10-13T18:14:18.488Z,101288.69
2022-10-13T18:16:46.829Z,101287.88
2022-10-13T18:19:16.068Z,101297.09
2022-10-13T18:21:43.887Z,101287.63
2022-10-13T18:24:12.470Z,101286.81
2022-10-13T18:26:40.711Z,101291.97
2022-10-13T18:29:10.181Z,101287.16
2022-10-13T18:31:39.366Z,101289.09
2022-10-13T18:34:08.817Z,101289.09
2022-10-13T18:36:39.614Z,101282.81
2022-10-13T18:39:09.054Z,101285.91
2022-10-13T18:41:38.532Z,101288.97
2022-10-13T18:44:07.337Z,101299.91
2022-10-13T18:46:36.658Z,101295.25
2022-10-13T18:49:04.865Z,101294.56
2022-10-13T18:51:36.291Z,101296.16
2022-10-13T18:54:06.600Z,101297.28
2022-10-13T18:56:36.760Z,101290.69
2022-10-13T18:59:06.199Z,101293.91
2022-10-13T19:01:35.814Z,101293.91
2022-10-13T19:04:04.296Z,101297.63
2022-10-13T19:06:32.740Z,101295.91
2022-10-13T19:09:02.360Z,101292.72
2022-10-13T19:11:32.128Z,101304.78
2022-10-13T19:14:01.340Z,101303.66
2022-10-13T19:16:31.194Z,101304.00
2022-10-13T19:18:59.391Z,101305.94
2022-10-13T19:21:29.889Z,101305.44
2022-10-13T19:24:00.866Z,101312.72
2022-10-13T19:26:32.762Z,101311.94
2022-10-13T19:29:03.116Z,101304.06
2022-10-13T19:31:32.980Z,101307.25
2022-10-13T19:34:01.496Z,101310.34
2022-10-13T19:36:31.777Z,101307.94
2022-10-13T19:39:00.767Z,101307.13
2022-10-13T19:41:31.825Z,101310.34
2022-10-13T19:44:00.417Z,101312.72
2022-10-13T19:46:28.277Z,101311.75
2022-10-13T19:48:56.155Z,101305.94
2022-10-13T19:51:23.965Z,101315.38
2022-10-13T19:53:51.729Z,101317.31
2022-10-13T19:56:23.949Z,101313.66
2022-10-13T19:58:54.329Z,101315.94
2022-10-13T20:01:22.842Z,101314.78
2022-10-13T20:03:51.020Z,101319.13
2022-10-13T20:06:19.870Z,101305.13
2022-10-13T20:08:48.157Z,101319.13
2022-10-13T20:11:22.993Z,101311.75
2022-10-13T20:13:54.245Z,101317.06
2022-10-13T20:16:23.862Z,101322.06
2022-10-13T20:18:53.062Z,101315.81
2022-10-13T20:21:20.854Z,101311.78
2022-10-13T20:23:49.093Z,101310.00
2022-10-13T20:26:17.375Z,101310.44
2022-10-13T20:28:46.752Z,101319.81
2022-10-13T20:31:18.149Z,101314.34
2022-10-13T20:33:46.908Z,101311.25
2022-10-13T20:36:18.959Z,101312.72
2022-10-13T20:38:48.786Z,101323.22
2022-10-13T20:41:18.785Z,101318.41
2022-10-13T20:43:47.123Z,101319.84
2022-10-13T20:46:18.026Z,101319.38
2022-10-13T20:49:09.421Z,101322.44
2022-10-13T20:51:33.766Z,101332.91
2022-10-13T20:54:01.740Z,101333.91
2022-10-13T20:56:29.855Z,101331.84
2022-10-13T20:58:57.684Z,101335.25
2022-10-13T21:01:26.848Z,101335.56
2022-10-13T21:03:55.279Z,101331.91
2022-10-13T21:06:24.743Z,101333.34
2022-10-13T21:08:53.050Z,101329.34
2022-10-13T21:11:22.474Z,101323.88
2022-10-13T21:13:51.332Z,101321.03
2022-10-13T21:16:22.249Z,101328.75
2022-10-13T21:18:53.081Z,101325.22
2022-10-13T21:21:22.574Z,101322.81
2022-10-13T21:23:51.369Z,101330.56
2022-10-13T21:26:21.816Z,101328.16
2022-10-13T21:28:50.841Z,101327.03
2022-10-13T21:31:20.169Z,101331.34
2022-10-13T21:33:48.060Z,101326.69
2022-10-13T21:36:19.411Z,101326.69
2022-10-13T21:38:48.957Z,101322.34
2022-10-13T21:41:16.918Z,101326.22
2022-10-13T21:43:44.723Z,101333.63
2022-10-13T21:46:14.156Z,101332.00
2022-10-13T21:48:41.938Z,101331.53
2022-10-13T21:51:14.215Z,101333.47
2022-10-13T21:53:43.446Z,101329.94
2022-10-13T21:56:12.762Z,101330.28
2022-10-13T21:58:40.804Z,101329.47
2022-10-13T22:01:08.942Z,101335.59
2022-10-13T22:03:36.820Z,101337.84
2022-10-13T22:06:06.850Z,101339.47
2022-10-13T22:08:39.109Z,101339.00
2022-10-13T22:11:09.967Z,101337.84
2022-10-13T22:13:38.650Z,101338.66
2022-10-13T22:16:08.616Z,101337.19
2022-10-13T22:18:36.490Z,101331.72
2022-10-13T22:21:05.513Z,101335.78
2022-10-13T22:23:33.679Z,101333.53
2022-10-13T22:26:01.577Z,101332.84
2022-10-13T22:28:36.086Z,101332.66
2022-10-13T22:31:05.731Z,101332.00
2022-10-13T22:33:35.995Z,101327.47
2022-10-13T22:36:08.445Z,101325.22
2022-10-13T22:38:36.489Z,101328.44
2022-10-13T22:41:05.045Z,101328.44
2022-10-13T22:43:34.497Z,101328.91
2022-10-13T22:46:02.941Z,101321.94
2022-10-13T22:48:30.711Z,101317.78
2022-10-13T22:50:58.477Z,101319.38
2022-10-13T22:53:26.250Z,101319.84
2022-10-13T22:55:54.064Z,101314.03
2022-10-13T22:58:22.020Z,101313.56
2022-10-13T23:00:51.176Z,101315.50
2022-10-13T23:03:19.452Z,101312.75
2022-10-13T23:05:49.160Z,101304.22
2022-10-13T23:08:17.015Z,101306.28
2022-10-13T23:10:44.778Z,101307.09
2022-10-13T23:13:12.607Z,101305.19
2022-10-13T23:15:40.387Z,101308.56
2022-10-13T23:18:09.599Z,101305.22
2022-10-13T23:20:40.823Z,101298.81
2022-10-13T23:23:08.618Z,101291.75
2022-10-13T23:25:37.012Z,101295.63
2022-10-13T23:28:05.748Z,101294.78
2022-10-13T23:30:33.537Z,101289.56
2022-10-13T23:33:01.286Z,101286.00
2022-10-13T23:35:30.448Z,101286.00
2022-10-13T23:37:58.282Z,101283.94
2022-10-13T23:40:26.024Z,101274.94
2022-10-13T23:42:53.801Z,101274.47
2022-10-13T23:45:21.567Z,101271.47
2022-10-13T23:47:51.766Z,101262.00
2022-10-13T23:50:19.531Z,101263.91
2022-10-13T23:52:48.733Z,101267.94
2022-10-13T23:55:16.751Z,101271.13
2022-10-13T23:57:44.530Z,101268.06
